sensor_id;sensor_type;location;lat;lon;timestamp;temperature;humidity
16229;DHT22;8222;51.462;12.630;2023-09-19T00:00:42;18.90;99.90
16229;DHT22;8222;51.462;12.630;2023-09-19T00:03:09;19.10;99.90
16229;DHT22;8222;51.462;12.630;2023-09-19T00:05:36;19.00;99.90
16229;DHT22;8222;51.462;12.630;2023-09-19T00:08:05;18.90;99.90
16229;DHT22;8222;51.462;12.630;2023-09-19T00:10:36;18.90;99.90
16229;DHT22;8222;51.462;12.630;2023-09-19T00:13:05;19.00;99.90
16229;DHT22;8222;51.462;12.630;2023-09-19T00:15:39;19.00;99.90
16229;DHT22;8222;51.462;12.630;2023-09-19T00:18:09;19.10;99.90
16229;DHT22;8222;51.462;12.630;2023-09-19T00:20:38;19.00;99.90
16229;DHT22;8222;51.462;12.630;2023-09-19T00:23:05;18.90;99.90
16229;DHT22;8222;51.462;12.630;2023-09-19T00:25:37;18.80;99.90
16229;DHT22;8222;51.462;12.630;2023-09-19T00:28:06;18.80;99.90
16229;DHT22;8222;51.462;12.630;2023-09-19T00:30:35;18.80;99.90
16229;DHT22;8222;51.462;12.630;2023-09-19T00:33:01;18.80;99.90
16229;DHT22;8222;51.462;12.630;2023-09-19T00:35:31;18.80;99.90
16229;DHT22;8222;51.462;12.630;2023-09-19T00:37:56;18.80;99.90
16229;DHT22;8222;51.462;12.630;2023-09-19T00:40:24;18.80;99.90
16229;DHT22;8222;51.462;12.630;2023-09-19T00:42:57;18.70;99.90
16229;DHT22;8222;51.462;12.630;2023-09-19T00:45:25;18.60;99.90
16229;DHT22;8222;51.462;12.630;2023-09-19T00:47:53;18.60;99.90
16229;DHT22;8222;51.462;12.630;2023-09-19T00:50:22;18.70;99.90
16229;DHT22;8222;51.462;12.630;2023-09-19T00:52:49;18.70;99.90
16229;DHT22;8222;51.462;12.630;2023-09-19T00:55:16;18.60;99.90
16229;DHT22;8222;51.462;12.630;2023-09-19T00:57:45;18.60;99.90
16229;DHT22;8222;51.462;12.630;2023-09-19T01:00:15;18.60;99.90
16229;DHT22;8222;51.462;12.630;2023-09-19T01:02:43;18.50;99.90
16229;DHT22;8222;51.462;12.630;2023-09-19T01:05:12;18.60;99.90
16229;DHT22;8222;51.462;12.630;2023-09-19T01:07:43;18.60;99.90
16229;DHT22;8222;51.462;12.630;2023-09-19T01:10:17;18.70;99.90
16229;DHT22;8222;51.462;12.630;2023-09-19T01:13:09;18.70;99.90
16229;DHT22;8222;51.462;12.630;2023-09-19T01:28:52;18.40;99.90
16229;DHT22;8222;51.462;12.630;2023-09-19T01:31:21;18.30;99.90
16229;DHT22;8222;51.462;12.630;2023-09-19T01:34:02;18.30;99.90
16229;DHT22;8222;51.462;12.630;2023-09-19T01:36:34;18.30;99.90
16229;DHT22;8222;51.462;12.630;2023-09-19T01:39:06;18.30;99.90
16229;DHT22;8222;51.462;12.630;2023-09-19T01:44:36;18.40;99.90
16229;DHT22;8222;51.462;12.630;2023-09-19T01:47:13;18.30;99.90
16229;DHT22;8222;51.462;12.630;2023-09-19T01:49:59;18.40;99.90
16229;DHT22;8222;51.462;12.630;2023-09-19T01:52:32;18.40;99.90
16229;DHT22;8222;51.462;12.630;2023-09-19T01:55:07;18.30;99.90
16229;DHT22;8222;51.462;12.630;2023-09-19T02:00:16;18.20;99.90
16229;DHT22;8222;51.462;12.630;2023-09-19T02:02:47;18.10;99.90
16229;DHT22;8222;51.462;12.630;2023-09-19T02:05:13;18.20;99.90
16229;DHT22;8222;51.462;12.630;2023-09-19T02:07:49;18.20;99.90
16229;DHT22;8222;51.462;12.630;2023-09-19T02:10:18;18.10;99.90
16229;DHT22;8222;51.462;12.630;2023-09-19T02:12:46;18.20;99.90
16229;DHT22;8222;51.462;12.630;2023-09-19T02:15:14;18.30;99.90
16229;DHT22;8222;51.462;12.630;2023-09-19T02:17:41;18.30;99.90
16229;DHT22;8222;51.462;12.630;2023-09-19T02:20:08;18.30;99.90
16229;DHT22;8222;51.462;12.630;2023-09-19T02:22:35;18.20;99.90
16229;DHT22;8222;51.462;12.630;2023-09-19T02:25:01;18.10;99.90
16229;DHT22;8222;51.462;12.630;2023-09-19T02:27:27;18.10;99.90
16229;DHT22;8222;51.462;12.630;2023-09-19T02:29:55;18.20;99.90
16229;DHT22;8222;51.462;12.630;2023-09-19T02:32:21;18.20;99.90
16229;DHT22;8222;51.462;12.630;2023-09-19T02:34:47;18.20;99.90
16229;DHT22;8222;51.462;12.630;2023-09-19T02:37:12;18.20;99.90
16229;DHT22;8222;51.462;12.630;2023-09-19T02:39:41;18.30;99.90
16229;DHT22;8222;51.462;12.630;2023-09-19T02:42:08;18.30;99.90
16229;DHT22;8222;51.462;12.630;2023-09-19T02:44:36;18.40;99.90
16229;DHT22;8222;51.462;12.630;2023-09-19T02:47:06;18.50;99.90
16229;DHT22;8222;51.462;12.630;2023-09-19T02:49:36;18.40;99.90
16229;DHT22;8222;51.462;12.630;2023-09-19T02:52:02;18.50;99.90
16229;DHT22;8222;51.462;12.630;2023-09-19T02:54:29;18.50;99.90
16229;DHT22;8222;51.462;12.630;2023-09-19T02:56:55;18.40;99.90
16229;DHT22;8222;51.462;12.630;2023-09-19T02:59:21;18.40;99.90
16229;DHT22;8222;51.462;12.630;2023-09-19T03:01:47;18.40;99.90
16229;DHT22;8222;51.462;12.630;2023-09-19T03:04:14;18.30;99.90
16229;DHT22;8222;51.462;12.630;2023-09-19T03:06:45;18.40;99.90
16229;DHT22;8222;51.462;12.630;2023-09-19T03:09:11;18.40;99.90
16229;DHT22;8222;51.462;12.630;2023-09-19T03:11:39;18.50;99.90
16229;DHT22;8222;51.462;12.630;2023-09-19T03:14:07;18.40;99.90
16229;DHT22;8222;51.462;12.630;2023-09-19T03:16:36;18.40;99.90
16229;DHT22;8222;51.462;12.630;2023-09-19T03:19:05;18.30;99.90
16229;DHT22;8222;51.462;12.630;2023-09-19T03:21:35;18.40;99.90
16229;DHT22;8222;51.462;12.630;2023-09-19T03:24:06;18.50;99.90
16229;DHT22;8222;51.462;12.630;2023-09-19T03:26:36;18.50;99.90
16229;DHT22;8222;51.462;12.630;2023-09-19T03:29:05;18.50;99.90
16229;DHT22;8222;51.462;12.630;2023-09-19T03:31:34;18.50;99.90
16229;DHT22;8222;51.462;12.630;2023-09-19T03:34:02;18.50;99.90
16229;DHT22;8222;51.462;12.630;2023-09-19T03:36:29;18.50;99.90
16229;DHT22;8222;51.462;12.630;2023-09-19T03:38:55;18.40;99.90
16229;DHT22;8222;51.462;12.630;2023-09-19T03:41:21;18.50;99.90
16229;DHT22;8222;51.462;12.630;2023-09-19T03:43:49;18.40;99.90
16229;DHT22;8222;51.462;12.630;2023-09-19T03:46:17;18.50;99.90
16229;DHT22;8222;51.462;12.630;2023-09-19T03:48:43;18.50;99.90
16229;DHT22;8222;51.462;12.630;2023-09-19T03:51:08;18.40;99.90
16229;DHT22;8222;51.462;12.630;2023-09-19T03:53:34;18.40;99.90
16229;DHT22;8222;51.462;12.630;2023-09-19T03:56:00;18.50;99.90
16229;DHT22;8222;51.462;12.630;2023-09-19T03:58:28;18.50;99.90
16229;DHT22;8222;51.462;12.630;2023-09-19T04:00:56;18.50;99.90
16229;DHT22;8222;51.462;12.630;2023-09-19T04:03:23;19.00;99.90
16229;DHT22;8222;51.462;12.630;2023-09-19T04:05:50;18.60;99.90
16229;DHT22;8222;51.462;12.630;2023-09-19T04:08:17;18.50;99.90
16229;DHT22;8222;51.462;12.630;2023-09-19T04:10:43;18.50;99.90
16229;DHT22;8222;51.462;12.630;2023-09-19T04:13:09;18.40;99.90
16229;DHT22;8222;51.462;12.630;2023-09-19T04:15:37;18.40;99.90
16229;DHT22;8222;51.462;12.630;2023-09-19T04:18:05;18.40;99.90
16229;DHT22;8222;51.462;12.630;2023-09-19T04:20:33;18.40;99.90
16229;DHT22;8222;51.462;12.630;2023-09-19T04:23:01;18.30;99.90
16229;DHT22;8222;51.462;12.630;2023-09-19T04:25:27;18.30;99.90
16229;DHT22;8222;51.462;12.630;2023-09-19T04:27:55;18.30;99.90
16229;DHT22;8222;51.462;12.630;2023-09-19T04:30:26;18.30;99.90
16229;DHT22;8222;51.462;12.630;2023-09-19T04:32:57;18.30;99.90
16229;DHT22;8222;51.462;12.630;2023-09-19T04:35:23;18.30;99.90
16229;DHT22;8222;51.462;12.630;2023-09-19T04:37:50;18.30;99.90
16229;DHT22;8222;51.462;12.630;2023-09-19T04:40:16;18.40;99.90
16229;DHT22;8222;51.462;12.630;2023-09-19T04:42:44;18.40;99.90
16229;DHT22;8222;51.462;12.630;2023-09-19T04:45:13;18.40;99.90
16229;DHT22;8222;51.462;12.630;2023-09-19T04:47:42;18.40;99.90
16229;DHT22;8222;51.462;12.630;2023-09-19T04:50:09;18.50;99.90
16229;DHT22;8222;51.462;12.630;2023-09-19T04:52:42;18.40;99.90
16229;DHT22;8222;51.462;12.630;2023-09-19T04:55:19;18.40;99.90
16229;DHT22;8222;51.462;12.630;2023-09-19T05:00:12;18.40;99.90
16229;DHT22;8222;51.462;12.630;2023-09-19T05:02:40;18.40;99.90
16229;DHT22;8222;51.462;12.630;2023-09-19T05:05:07;18.40;99.90
16229;DHT22;8222;51.462;12.630;2023-09-19T05:07:36;18.30;99.90
16229;DHT22;8222;51.462;12.630;2023-09-19T05:10:04;18.30;99.90
16229;DHT22;8222;51.462;12.630;2023-09-19T05:12:32;18.20;99.90
16229;DHT22;8222;51.462;12.630;2023-09-19T05:14:59;18.20;99.90
16229;DHT22;8222;51.462;12.630;2023-09-19T05:17:29;18.30;99.90
16229;DHT22;8222;51.462;12.630;2023-09-19T05:19:57;18.30;99.90
16229;DHT22;8222;51.462;12.630;2023-09-19T05:22:38;18.30;99.90
16229;DHT22;8222;51.462;12.630;2023-09-19T05:25:11;18.10;99.90
16229;DHT22;8222;51.462;12.630;2023-09-19T05:27:42;18.20;99.90
16229;DHT22;8222;51.462;12.630;2023-09-19T05:30:08;18.10;99.90
16229;DHT22;8222;51.462;12.630;2023-09-19T05:32:34;18.00;99.90
16229;DHT22;8222;51.462;12.630;2023-09-19T05:35:02;18.10;99.90
16229;DHT22;8222;51.462;12.630;2023-09-19T05:37:28;18.10;99.90
16229;DHT22;8222;51.462;12.630;2023-09-19T05:39:56;18.20;99.90
16229;DHT22;8222;51.462;12.630;2023-09-19T05:42:24;18.10;99.90
16229;DHT22;8222;51.462;12.630;2023-09-19T05:44:49;18.20;99.90
16229;DHT22;8222;51.462;12.630;2023-09-19T05:47:15;18.20;99.90
16229;DHT22;8222;51.462;12.630;2023-09-19T05:49:46;18.20;99.90
16229;DHT22;8222;51.462;12.630;2023-09-19T05:52:12;18.30;99.90
16229;DHT22;8222;51.462;12.630;2023-09-19T05:54:41;18.30;99.90
16229;DHT22;8222;51.462;12.630;2023-09-19T05:57:08;18.20;99.90
16229;DHT22;8222;51.462;12.630;2023-09-19T05:59:37;18.30;99.90
16229;DHT22;8222;51.462;12.630;2023-09-19T06:02:07;18.40;99.90
16229;DHT22;8222;51.462;12.630;2023-09-19T06:04:37;18.30;99.90
16229;DHT22;8222;51.462;12.630;2023-09-19T06:07:08;18.30;99.90
16229;DHT22;8222;51.462;12.630;2023-09-19T06:09:36;18.30;99.90
16229;DHT22;8222;51.462;12.630;2023-09-19T06:12:06;18.30;99.90
16229;DHT22;8222;51.462;12.630;2023-09-19T06:14:34;18.30;99.90
16229;DHT22;8222;51.462;12.630;2023-09-19T06:17:02;18.40;99.90
16229;DHT22;8222;51.462;12.630;2023-09-19T06:19:30;18.40;99.90
16229;DHT22;8222;51.462;12.630;2023-09-19T06:21:55;18.40;99.90
16229;DHT22;8222;51.462;12.630;2023-09-19T06:24:21;18.40;99.90
16229;DHT22;8222;51.462;12.630;2023-09-19T06:26:47;18.50;99.90
16229;DHT22;8222;51.462;12.630;2023-09-19T06:29:15;18.50;99.90
16229;DHT22;8222;51.462;12.630;2023-09-19T06:31:41;18.60;99.90
16229;DHT22;8222;51.462;12.630;2023-09-19T06:34:09;18.80;99.90
16229;DHT22;8222;51.462;12.630;2023-09-19T06:36:35;18.80;99.90
16229;DHT22;8222;51.462;12.630;2023-09-19T06:39:01;19.00;99.90
16229;DHT22;8222;51.462;12.630;2023-09-19T06:41:26;19.00;99.90
16229;DHT22;8222;51.462;12.630;2023-09-19T06:43:55;19.10;99.90
16229;DHT22;8222;51.462;12.630;2023-09-19T06:46:21;19.20;99.90
16229;DHT22;8222;51.462;12.630;2023-09-19T06:48:46;19.30;99.90
16229;DHT22;8222;51.462;12.630;2023-09-19T06:51:13;19.50;99.90
16229;DHT22;8222;51.462;12.630;2023-09-19T06:53:41;19.60;99.90
16229;DHT22;8222;51.462;12.630;2023-09-19T06:56:07;19.60;99.90
16229;DHT22;8222;51.462;12.630;2023-09-19T06:58:33;19.70;99.90
16229;DHT22;8222;51.462;12.630;2023-09-19T07:01:01;20.00;99.90
16229;DHT22;8222;51.462;12.630;2023-09-19T07:03:26;20.10;99.90
16229;DHT22;8222;51.462;12.630;2023-09-19T07:05:54;20.40;99.90
16229;DHT22;8222;51.462;12.630;2023-09-19T07:08:24;20.40;99.90
16229;DHT22;8222;51.462;12.630;2023-09-19T07:10:50;20.40;99.90
16229;DHT22;8222;51.462;12.630;2023-09-19T07:13:21;20.60;99.90
16229;DHT22;8222;51.462;12.630;2023-09-19T07:15:50;20.90;99.90
16229;DHT22;8222;51.462;12.630;2023-09-19T07:18:18;20.90;99.90
16229;DHT22;8222;51.462;12.630;2023-09-19T07:20:46;20.90;99.90
16229;DHT22;8222;51.462;12.630;2023-09-19T07:23:19;20.90;99.90
16229;DHT22;8222;51.462;12.630;2023-09-19T07:25:49;20.90;99.90
16229;DHT22;8222;51.462;12.630;2023-09-19T07:28:18;21.20;99.90
16229;DHT22;8222;51.462;12.630;2023-09-19T07:30:46;21.20;99.90
16229;DHT22;8222;51.462;12.630;2023-09-19T07:33:14;21.30;99.90
16229;DHT22;8222;51.462;12.630;2023-09-19T07:35:47;21.20;99.90
16229;DHT22;8222;51.462;12.630;2023-09-19T07:38:13;21.10;99.90
16229;DHT22;8222;51.462;12.630;2023-09-19T07:40:41;21.20;99.90
16229;DHT22;8222;51.462;12.630;2023-09-19T07:43:09;21.00;99.90
16229;DHT22;8222;51.462;12.630;2023-09-19T07:45:35;21.00;99.90
16229;DHT22;8222;51.462;12.630;2023-09-19T07:48:04;21.00;99.90
16229;DHT22;8222;51.462;12.630;2023-09-19T07:50:34;21.10;99.90
16229;DHT22;8222;51.462;12.630;2023-09-19T07:53:04;21.30;99.90
16229;DHT22;8222;51.462;12.630;2023-09-19T07:55:30;21.60;99.90
16229;DHT22;8222;51.462;12.630;2023-09-19T07:57:56;21.80;99.90
16229;DHT22;8222;51.462;12.630;2023-09-19T08:00:25;21.90;99.90
16229;DHT22;8222;51.462;12.630;2023-09-19T08:02:50;22.00;99.90
16229;DHT22;8222;51.462;12.630;2023-09-19T08:05:17;22.20;99.90
16229;DHT22;8222;51.462;12.630;2023-09-19T08:07:45;22.10;99.90
16229;DHT22;8222;51.462;12.630;2023-09-19T08:10:16;22.20;99.90
16229;DHT22;8222;51.462;12.630;2023-09-19T08:12:46;22.30;99.90
16229;DHT22;8222;51.462;12.630;2023-09-19T08:15:19;22.40;99.90
16229;DHT22;8222;51.462;12.630;2023-09-19T08:17:48;22.60;99.90
16229;DHT22;8222;51.462;12.630;2023-09-19T08:20:16;22.70;99.90
16229;DHT22;8222;51.462;12.630;2023-09-19T08:22:50;22.60;99.90
16229;DHT22;8222;51.462;12.630;2023-09-19T08:25:23;22.50;99.90
16229;DHT22;8222;51.462;12.630;2023-09-19T08:27:49;22.50;99.90
16229;DHT22;8222;51.462;12.630;2023-09-19T08:30:16;22.50;99.90
16229;DHT22;8222;51.462;12.630;2023-09-19T08:32:43;22.50;99.90
16229;DHT22;8222;51.462;12.630;2023-09-19T08:35:12;22.40;99.90
16229;DHT22;8222;51.462;12.630;2023-09-19T08:37:38;22.40;99.90
16229;DHT22;8222;51.462;12.630;2023-09-19T08:40:06;22.30;99.90
16229;DHT22;8222;51.462;12.630;2023-09-19T08:42:55;22.10;99.90
16229;DHT22;8222;51.462;12.630;2023-09-19T08:45:24;21.90;99.90
16229;DHT22;8222;51.462;12.630;2023-09-19T08:48:17;21.80;99.90
16229;DHT22;8222;51.462;12.630;2023-09-19T08:50:49;21.70;99.90
16229;DHT22;8222;51.462;12.630;2023-09-19T08:53:42;21.70;99.90
16229;DHT22;8222;51.462;12.630;2023-09-19T08:56:12;21.70;99.90
16229;DHT22;8222;51.462;12.630;2023-09-19T08:58:53;21.70;99.90
16229;DHT22;8222;51.462;12.630;2023-09-19T09:01:22;21.90;99.90
16229;DHT22;8222;51.462;12.630;2023-09-19T09:03:52;22.00;99.90
16229;DHT22;8222;51.462;12.630;2023-09-19T09:06:20;22.30;99.90
16229;DHT22;8222;51.462;12.630;2023-09-19T09:08:50;22.40;99.90
16229;DHT22;8222;51.462;12.630;2023-09-19T09:11:20;22.60;99.90
16229;DHT22;8222;51.462;12.630;2023-09-19T09:13:47;22.50;99.90
16229;DHT22;8222;51.462;12.630;2023-09-19T09:16:16;22.40;99.90
16229;DHT22;8222;51.462;12.630;2023-09-19T09:18:51;22.60;99.90
16229;DHT22;8222;51.462;12.630;2023-09-19T09:21:27;22.60;99.90
16229;DHT22;8222;51.462;12.630;2023-09-19T09:23:56;22.80;99.90
16229;DHT22;8222;51.462;12.630;2023-09-19T09:26:41;22.90;99.90
16229;DHT22;8222;51.462;12.630;2023-09-19T09:29:12;23.00;99.90
16229;DHT22;8222;51.462;12.630;2023-09-19T09:31:38;23.10;99.90
16229;DHT22;8222;51.462;12.630;2023-09-19T09:34:08;23.10;99.90
16229;DHT22;8222;51.462;12.630;2023-09-19T09:36:36;23.20;99.90
16229;DHT22;8222;51.462;12.630;2023-09-19T09:39:03;23.30;99.90
16229;DHT22;8222;51.462;12.630;2023-09-19T09:41:43;23.40;99.90
16229;DHT22;8222;51.462;12.630;2023-09-19T09:44:15;23.60;99.90
16229;DHT22;8222;51.462;12.630;2023-09-19T09:46:45;23.80;99.90
16229;DHT22;8222;51.462;12.630;2023-09-19T09:49:27;23.90;98.40
16229;DHT22;8222;51.462;12.630;2023-09-19T09:52:00;23.80;99.90
16229;DHT22;8222;51.462;12.630;2023-09-19T09:54:31;23.90;99.00
16229;DHT22;8222;51.462;12.630;2023-09-19T09:57:06;23.80;98.00
16229;DHT22;8222;51.462;12.630;2023-09-19T09:59:54;23.80;97.90
16229;DHT22;8222;51.462;12.630;2023-09-19T10:02:34;23.70;97.40
16229;DHT22;8222;51.462;12.630;2023-09-19T10:05:19;23.90;96.90
16229;DHT22;8222;51.462;12.630;2023-09-19T10:07:49;23.90;94.90
16229;DHT22;8222;51.462;12.630;2023-09-19T10:10:37;23.80;92.60
16229;DHT22;8222;51.462;12.630;2023-09-19T10:13:13;23.80;92.90
16229;DHT22;8222;51.462;12.630;2023-09-19T10:15:46;24.00;92.20
16229;DHT22;8222;51.462;12.630;2023-09-19T10:18:26;23.80;91.50
16229;DHT22;8222;51.462;12.630;2023-09-19T10:20:57;23.50;92.90
16229;DHT22;8222;51.462;12.630;2023-09-19T10:23:28;23.40;94.30
16229;DHT22;8222;51.462;12.630;2023-09-19T10:25:57;23.40;93.50
16229;DHT22;8222;51.462;12.630;2023-09-19T10:28:28;23.40;93.60
16229;DHT22;8222;51.462;12.630;2023-09-19T10:30:59;23.10;93.90
16229;DHT22;8222;51.462;12.630;2023-09-19T10:33:35;23.20;94.20
16229;DHT22;8222;51.462;12.630;2023-09-19T10:36:05;23.10;95.00
16229;DHT22;8222;51.462;12.630;2023-09-19T10:38:33;23.30;93.90
16229;DHT22;8222;51.462;12.630;2023-09-19T10:41:01;23.20;93.80
16229;DHT22;8222;51.462;12.630;2023-09-19T10:43:31;23.10;94.10
16229;DHT22;8222;51.462;12.630;2023-09-19T10:46:07;23.10;93.40
16229;DHT22;8222;51.462;12.630;2023-09-19T10:48:36;23.20;94.00
16229;DHT22;8222;51.462;12.630;2023-09-19T10:51:12;23.20;92.50
16229;DHT22;8222;51.462;12.630;2023-09-19T10:56:32;23.40;90.40
16229;DHT22;8222;51.462;12.630;2023-09-19T10:59:09;23.60;91.30
16229;DHT22;8222;51.462;12.630;2023-09-19T11:16:02;23.90;82.40
16229;DHT22;8222;51.462;12.630;2023-09-19T11:26:50;23.90;79.80
16229;DHT22;8222;51.462;12.630;2023-09-19T11:29:32;23.80;80.70
16229;DHT22;8222;51.462;12.630;2023-09-19T11:32:01;23.60;80.50
16229;DHT22;8222;51.462;12.630;2023-09-19T11:37:59;23.60;83.40
16229;DHT22;8222;51.462;12.630;2023-09-19T11:40:07;23.60;80.70
16229;DHT22;8222;51.462;12.630;2023-09-19T11:42:55;23.60;79.70
16229;DHT22;8222;51.462;12.630;2023-09-19T11:48:16;23.50;80.50
16229;DHT22;8222;51.462;12.630;2023-09-19T11:50:45;23.70;81.70
16229;DHT22;8222;51.462;12.630;2023-09-19T11:53:13;23.60;78.20
16229;DHT22;8222;51.462;12.630;2023-09-19T11:55:44;23.50;79.10
16229;DHT22;8222;51.462;12.630;2023-09-19T11:58:15;23.60;82.10
16229;DHT22;8222;51.462;12.630;2023-09-19T12:00:44;23.50;81.30
16229;DHT22;8222;51.462;12.630;2023-09-19T12:03:18;23.60;79.90
16229;DHT22;8222;51.462;12.630;2023-09-19T12:05:43;23.60;82.70
16229;DHT22;8222;51.462;12.630;2023-09-19T12:08:09;23.60;82.00
16229;DHT22;8222;51.462;12.630;2023-09-19T12:10:55;23.80;81.40
16229;DHT22;8222;51.462;12.630;2023-09-19T12:13:24;23.80;79.70
16229;DHT22;8222;51.462;12.630;2023-09-19T12:15:51;23.80;79.80
16229;DHT22;8222;51.462;12.630;2023-09-19T12:18:29;23.80;81.20
16229;DHT22;8222;51.462;12.630;2023-09-19T12:20:58;23.80;80.10
16229;DHT22;8222;51.462;12.630;2023-09-19T12:23:24;23.80;78.20
16229;DHT22;8222;51.462;12.630;2023-09-19T12:25:55;23.70;80.80
16229;DHT22;8222;51.462;12.630;2023-09-19T12:28:25;23.90;80.40
16229;DHT22;8222;51.462;12.630;2023-09-19T12:30:52;23.90;80.30
16229;DHT22;8222;51.462;12.630;2023-09-19T12:33:21;24.00;81.10
16229;DHT22;8222;51.462;12.630;2023-09-19T12:35:47;24.10;80.80
16229;DHT22;8222;51.462;12.630;2023-09-19T12:38:26;24.00;80.20
16229;DHT22;8222;51.462;12.630;2023-09-19T12:41:01;24.00;82.30
16229;DHT22;8222;51.462;12.630;2023-09-19T12:43:31;24.00;81.80
16229;DHT22;8222;51.462;12.630;2023-09-19T12:46:01;23.90;80.20
16229;DHT22;8222;51.462;12.630;2023-09-19T12:48:28;24.00;82.30
16229;DHT22;8222;51.462;12.630;2023-09-19T12:51:10;24.20;79.90
16229;DHT22;8222;51.462;12.630;2023-09-19T12:53:46;24.50;80.50
16229;DHT22;8222;51.462;12.630;2023-09-19T12:56:16;24.20;79.30
16229;DHT22;8222;51.462;12.630;2023-09-19T13:01:22;24.30;81.50
16229;DHT22;8222;51.462;12.630;2023-09-19T13:06:52;24.20;81.10
16229;DHT22;8222;51.462;12.630;2023-09-19T13:09:22;24.20;82.40
16229;DHT22;8222;51.462;12.630;2023-09-19T13:11:56;24.00;80.90
16229;DHT22;8222;51.462;12.630;2023-09-19T13:14:26;24.20;82.20
16229;DHT22;8222;51.462;12.630;2023-09-19T13:17:06;24.30;81.50
16229;DHT22;8222;51.462;12.630;2023-09-19T13:19:48;24.10;80.50
16229;DHT22;8222;51.462;12.630;2023-09-19T13:25:09;24.00;78.60
16229;DHT22;8222;51.462;12.630;2023-09-19T13:27:42;24.00;79.80
16229;DHT22;8222;51.462;12.630;2023-09-19T13:30:10;24.30;79.60
16229;DHT22;8222;51.462;12.630;2023-09-19T13:32:35;24.40;79.10
16229;DHT22;8222;51.462;12.630;2023-09-19T13:35:05;24.20;77.50
16229;DHT22;8222;51.462;12.630;2023-09-19T13:37:34;24.30;78.80
16229;DHT22;8222;51.462;12.630;2023-09-19T13:40:05;24.20;79.40
16229;DHT22;8222;51.462;12.630;2023-09-19T13:42:31;24.20;80.90
16229;DHT22;8222;51.462;12.630;2023-09-19T13:44:58;24.20;78.00
16229;DHT22;8222;51.462;12.630;2023-09-19T13:47:29;24.10;79.30
16229;DHT22;8222;51.462;12.630;2023-09-19T13:49:54;24.10;79.30
16229;DHT22;8222;51.462;12.630;2023-09-19T13:52:25;24.00;79.70
16229;DHT22;8222;51.462;12.630;2023-09-19T13:54:54;23.90;79.60
16229;DHT22;8222;51.462;12.630;2023-09-19T13:57:22;23.90;79.40
16229;DHT22;8222;51.462;12.630;2023-09-19T13:59:48;24.10;79.20
16229;DHT22;8222;51.462;12.630;2023-09-19T14:02:17;24.40;78.30
16229;DHT22;8222;51.462;12.630;2023-09-19T14:04:48;24.40;79.40
16229;DHT22;8222;51.462;12.630;2023-09-19T14:07:19;24.40;79.90
16229;DHT22;8222;51.462;12.630;2023-09-19T14:09:45;24.40;79.90
16229;DHT22;8222;51.462;12.630;2023-09-19T14:12:12;24.40;80.00
16229;DHT22;8222;51.462;12.630;2023-09-19T14:14:37;24.50;79.40
16229;DHT22;8222;51.462;12.630;2023-09-19T14:17:04;24.30;79.40
16229;DHT22;8222;51.462;12.630;2023-09-19T14:19:33;24.40;78.60
16229;DHT22;8222;51.462;12.630;2023-09-19T14:22:00;24.40;79.00
16229;DHT22;8222;51.462;12.630;2023-09-19T14:24:33;24.30;80.20
16229;DHT22;8222;51.462;12.630;2023-09-19T14:27:01;24.10;80.20
16229;DHT22;8222;51.462;12.630;2023-09-19T14:29:30;24.20;80.80
16229;DHT22;8222;51.462;12.630;2023-09-19T14:31:56;24.40;78.20
16229;DHT22;8222;51.462;12.630;2023-09-19T14:34:23;24.40;79.30
16229;DHT22;8222;51.462;12.630;2023-09-19T14:36:48;24.30;78.40
16229;DHT22;8222;51.462;12.630;2023-09-19T14:39:16;24.40;78.80
16229;DHT22;8222;51.462;12.630;2023-09-19T14:41:42;24.40;79.80
16229;DHT22;8222;51.462;12.630;2023-09-19T14:44:10;24.40;80.20
16229;DHT22;8222;51.462;12.630;2023-09-19T14:46:36;24.20;79.40
16229;DHT22;8222;51.462;12.630;2023-09-19T14:49:04;24.10;79.10
16229;DHT22;8222;51.462;12.630;2023-09-19T14:51:31;23.90;79.50
16229;DHT22;8222;51.462;12.630;2023-09-19T14:53:59;24.00;79.00
16229;DHT22;8222;51.462;12.630;2023-09-19T14:56:27;24.10;79.50
16229;DHT22;8222;51.462;12.630;2023-09-19T14:58:55;23.90;80.30
16229;DHT22;8222;51.462;12.630;2023-09-19T15:01:21;23.90;79.30
16229;DHT22;8222;51.462;12.630;2023-09-19T15:03:48;24.00;80.30
16229;DHT22;8222;51.462;12.630;2023-09-19T15:06:16;23.90;81.40
16229;DHT22;8222;51.462;12.630;2023-09-19T15:08:47;23.90;80.00
16229;DHT22;8222;51.462;12.630;2023-09-19T15:11:16;23.90;80.90
16229;DHT22;8222;51.462;12.630;2023-09-19T15:13:46;23.70;81.90
16229;DHT22;8222;51.462;12.630;2023-09-19T15:16:14;23.90;81.50
16229;DHT22;8222;51.462;12.630;2023-09-19T15:18:47;23.80;81.70
16229;DHT22;8222;51.462;12.630;2023-09-19T15:21:15;23.90;81.90
16229;DHT22;8222;51.462;12.630;2023-09-19T15:23:42;23.90;81.90
16229;DHT22;8222;51.462;12.630;2023-09-19T15:26:14;23.80;83.60
16229;DHT22;8222;51.462;12.630;2023-09-19T15:28:42;23.70;83.80
16229;DHT22;8222;51.462;12.630;2023-09-19T15:31:14;23.80;83.10
16229;DHT22;8222;51.462;12.630;2023-09-19T15:33:44;23.90;82.10
16229;DHT22;8222;51.462;12.630;2023-09-19T15:36:11;24.10;81.90
16229;DHT22;8222;51.462;12.630;2023-09-19T15:39:02;24.00;83.50
16229;DHT22;8222;51.462;12.630;2023-09-19T15:41:34;24.00;80.80
16229;DHT22;8222;51.462;12.630;2023-09-19T15:44:03;23.70;82.10
16229;DHT22;8222;51.462;12.630;2023-09-19T15:46:35;23.50;81.10
16229;DHT22;8222;51.462;12.630;2023-09-19T15:49:03;23.40;80.60
16229;DHT22;8222;51.462;12.630;2023-09-19T15:51:33;23.50;81.10
16229;DHT22;8222;51.462;12.630;2023-09-19T15:54:06;23.50;79.90
16229;DHT22;8222;51.462;12.630;2023-09-19T15:56:33;23.40;79.90
16229;DHT22;8222;51.462;12.630;2023-09-19T15:59:02;23.10;79.60
16229;DHT22;8222;51.462;12.630;2023-09-19T16:01:29;23.00;81.50
16229;DHT22;8222;51.462;12.630;2023-09-19T16:03:57;22.80;79.70
16229;DHT22;8222;51.462;12.630;2023-09-19T16:06:29;22.70;80.20
16229;DHT22;8222;51.462;12.630;2023-09-19T16:08:58;22.50;81.50
16229;DHT22;8222;51.462;12.630;2023-09-19T16:11:31;22.60;80.00
16229;DHT22;8222;51.462;12.630;2023-09-19T16:14:03;22.50;80.60
16229;DHT22;8222;51.462;12.630;2023-09-19T16:16:34;22.50;78.20
16229;DHT22;8222;51.462;12.630;2023-09-19T16:19:02;22.30;79.00
16229;DHT22;8222;51.462;12.630;2023-09-19T16:21:32;22.30;80.00
16229;DHT22;8222;51.462;12.630;2023-09-19T16:24:03;22.20;81.40
16229;DHT22;8222;51.462;12.630;2023-09-19T16:26:32;22.00;80.70
16229;DHT22;8222;51.462;12.630;2023-09-19T16:28:58;22.00;81.10
16229;DHT22;8222;51.462;12.630;2023-09-19T16:31:28;21.90;82.40
16229;DHT22;8222;51.462;12.630;2023-09-19T16:33:54;22.00;82.40
16229;DHT22;8222;51.462;12.630;2023-09-19T16:36:20;21.80;83.20
16229;DHT22;8222;51.462;12.630;2023-09-19T16:38:48;21.80;84.00
16229;DHT22;8222;51.462;12.630;2023-09-19T16:41:18;21.70;84.60
16229;DHT22;8222;51.462;12.630;2023-09-19T16:43:52;21.50;84.60
16229;DHT22;8222;51.462;12.630;2023-09-19T16:46:20;21.50;85.40